sensor_id;sensor_type;location;lat;lon;timestamp;pressure;altitude;pressure_sealevel;temperature;humidity
66430;BME280;53242;51.694;10.006;2023-04-30T00:00:24;100166.50;;;7.75;76.87
66430;BME280;53242;51.694;10.006;2023-04-30T00:02:47;100162.19;;;7.66;77.13
66430;BME280;53242;51.694;10.006;2023-04-30T00:05:09;100168.78;;;7.70;77.03
66430;BME280;53242;51.694;10.006;2023-04-30T00:07:31;100175.78;;;7.53;77.39
66430;BME280;53242;51.694;10.006;2023-04-30T00:09:54;100171.69;;;7.58;77.20
66430;BME280;53242;51.694;10.006;2023-04-30T00:12:16;100173.22;;;7.69;76.68
66430;BME280;53242;51.694;10.006;2023-04-30T00:14:39;100176.22;;;7.48;77.24
66430;BME280;53242;51.694;10.006;2023-04-30T00:17:01;100187.38;;;7.42;77.84
66430;BME280;53242;51.694;10.006;2023-04-30T00:19:24;100193.16;;;7.19;78.33
66430;BME280;53242;51.694;10.006;2023-04-30T00:21:47;100189.94;;;7.34;78.21
66430;BME280;53242;51.694;10.006;2023-04-30T00:24:09;100187.25;;;7.52;77.87
66430;BME280;53242;51.694;10.006;2023-04-30T00:26:31;100199.69;;;7.41;77.84
66430;BME280;53242;51.694;10.006;2023-04-30T00:28:54;100195.66;;;7.55;77.71
66430;BME280;53242;51.694;10.006;2023-04-30T00:31:16;100199.22;;;7.46;78.16
66430;BME280;53242;51.694;10.006;2023-04-30T00:33:39;100202.56;;;7.56;77.39
66430;BME280;53242;51.694;10.006;2023-04-30T00:36:01;100205.25;;;7.73;77.51
66430;BME280;53242;51.694;10.006;2023-04-30T00:38:24;100204.25;;;7.74;77.38
66430;BME280;53242;51.694;10.006;2023-04-30T00:40:46;100206.19;;;7.64;77.46
66430;BME280;53242;51.694;10.006;2023-04-30T00:43:09;100201.66;;;7.82;77.48
66430;BME280;53242;51.694;10.006;2023-04-30T00:45:31;100213.84;;;7.92;76.97
66430;BME280;53242;51.694;10.006;2023-04-30T00:47:54;100219.75;;;7.85;76.98
66430;BME280;53242;51.694;10.006;2023-04-30T00:50:16;100212.47;;;7.79;77.13
66430;BME280;53242;51.694;10.006;2023-04-30T00:52:39;100213.84;;;7.83;77.22
66430;BME280;53242;51.694;10.006;2023-04-30T00:55:01;100204.22;;;7.66;77.37
66430;BME280;53242;51.694;10.006;2023-04-30T00:57:24;100209.38;;;7.76;77.35
66430;BME280;53242;51.694;10.006;2023-04-30T00:59:47;100210.69;;;7.80;76.82
66430;BME280;53242;51.694;10.006;2023-04-30T01:02:11;100213.66;;;7.85;76.36
66430;BME280;53242;51.694;10.006;2023-04-30T01:04:34;100207.91;;;7.47;78.06
66430;BME280;53242;51.694;10.006;2023-04-30T01:06:57;100212.88;;;7.50;77.71
66430;BME280;53242;51.694;10.006;2023-04-30T01:09:19;100219.28;;;7.55;77.77
66430;BME280;53242;51.694;10.006;2023-04-30T01:17:36;100215.34;;;7.25;78.70
66430;BME280;53242;51.694;10.006;2023-04-30T01:20:00;100212.34;;;6.94;79.88
66430;BME280;53242;51.694;10.006;2023-04-30T01:30:10;100224.41;;;6.86;80.49
66430;BME280;53242;51.694;10.006;2023-04-30T01:32:33;100217.19;;;6.80;80.83
66430;BME280;53242;51.694;10.006;2023-04-30T01:34:55;100224.31;;;6.70;80.82
66430;BME280;53242;51.694;10.006;2023-04-30T01:37:28;100234.28;;;6.66;81.08
66430;BME280;53242;51.694;10.006;2023-04-30T01:40:23;100224.91;;;6.64;81.63
66430;BME280;53242;51.694;10.006;2023-04-30T01:43:00;100230.06;;;6.55;81.73
66430;BME280;53242;51.694;10.006;2023-04-30T01:54:02;100231.34;;;6.69;80.63
66430;BME280;53242;51.694;10.006;2023-04-30T01:56:31;100231.28;;;6.61;80.85
66430;BME280;53242;51.694;10.006;2023-04-30T01:58:54;100235.41;;;6.64;80.56
66430;BME280;53242;51.694;10.006;2023-04-30T02:01:27;100240.47;;;6.83;80.16
66430;BME280;53242;51.694;10.006;2023-04-30T02:03:51;100241.28;;;6.84;79.92
66430;BME280;53242;51.694;10.006;2023-04-30T02:06:13;100236.28;;;6.90;79.51
66430;BME280;53242;51.694;10.006;2023-04-30T02:08:36;100247.38;;;6.66;80.01
66430;BME280;53242;51.694;10.006;2023-04-30T02:10:58;100243.53;;;6.79;79.76
66430;BME280;53242;51.694;10.006;2023-04-30T02:13:21;100245.50;;;6.77;79.72
66430;BME280;53242;51.694;10.006;2023-04-30T02:15:43;100242.59;;;6.62;79.85
66430;BME280;53242;51.694;10.006;2023-04-30T02:18:05;100248.78;;;6.61;79.93
66430;BME280;53242;51.694;10.006;2023-04-30T02:20:28;100247.81;;;6.62;79.60
66430;BME280;53242;51.694;10.006;2023-04-30T02:22:51;100247.91;;;6.70;79.63
66430;BME280;53242;51.694;10.006;2023-04-30T02:25:14;100249.31;;;6.46;80.44
66430;BME280;53242;51.694;10.006;2023-04-30T02:27:37;100246.63;;;6.38;80.85
66430;BME280;53242;51.694;10.006;2023-04-30T02:29:59;100255.84;;;6.60;79.94
66430;BME280;53242;51.694;10.006;2023-04-30T02:32:22;100257.50;;;6.61;79.90
66430;BME280;53242;51.694;10.006;2023-04-30T02:34:44;100255.78;;;6.52;80.02
66430;BME280;53242;51.694;10.006;2023-04-30T02:37:07;100249.31;;;6.64;79.76
66430;BME280;53242;51.694;10.006;2023-04-30T02:39:30;100249.63;;;6.61;79.48
66430;BME280;53242;51.694;10.006;2023-04-30T02:41:52;100249.47;;;6.63;79.32
66430;BME280;53242;51.694;10.006;2023-04-30T02:44:15;100246.91;;;6.71;78.98
66430;BME280;53242;51.694;10.006;2023-04-30T02:46:37;100240.50;;;6.65;79.12
66430;BME280;53242;51.694;10.006;2023-04-30T02:48:59;100251.13;;;6.64;78.90
66430;BME280;53242;51.694;10.006;2023-04-30T02:51:22;100255.69;;;6.62;79.22
66430;BME280;53242;51.694;10.006;2023-04-30T02:53:44;100254.34;;;6.57;79.40
66430;BME280;53242;51.694;10.006;2023-04-30T02:56:07;100248.66;;;6.62;79.15
66430;BME280;53242;51.694;10.006;2023-04-30T02:58:29;100255.84;;;6.42;80.14
66430;BME280;53242;51.694;10.006;2023-04-30T03:00:52;100253.81;;;6.36;80.69
66430;BME280;53242;51.694;10.006;2023-04-30T03:03:14;100254.69;;;6.27;81.22
66430;BME280;53242;51.694;10.006;2023-04-30T03:05:36;100256.25;;;6.19;81.52
66430;BME280;53242;51.694;10.006;2023-04-30T03:07:59;100264.00;;;6.39;80.69
66430;BME280;53242;51.694;10.006;2023-04-30T03:10:21;100258.31;;;6.44;80.06
66430;BME280;53242;51.694;10.006;2023-04-30T03:12:44;100259.13;;;6.26;80.32
66430;BME280;53242;51.694;10.006;2023-04-30T03:15:07;100255.31;;;6.56;79.44
66430;BME280;53242;51.694;10.006;2023-04-30T03:17:29;100263.19;;;6.56;79.17
66430;BME280;53242;51.694;10.006;2023-04-30T03:19:52;100265.38;;;6.43;79.34
66430;BME280;53242;51.694;10.006;2023-04-30T03:22:14;100263.78;;;6.50;78.93
66430;BME280;53242;51.694;10.006;2023-04-30T03:24:36;100261.03;;;6.52;78.27
66430;BME280;53242;51.694;10.006;2023-04-30T03:26:59;100267.69;;;6.46;78.10
66430;BME280;53242;51.694;10.006;2023-04-30T03:29:23;100264.84;;;6.39;78.29
66430;BME280;53242;51.694;10.006;2023-04-30T03:31:45;100269.16;;;6.31;78.53
66430;BME280;53242;51.694;10.006;2023-04-30T03:34:08;100264.56;;;6.15;79.25
66430;BME280;53242;51.694;10.006;2023-04-30T03:36:31;100269.13;;;6.13;79.92
66430;BME280;53242;51.694;10.006;2023-04-30T03:38:53;100270.31;;;6.00;80.06
66430;BME280;53242;51.694;10.006;2023-04-30T03:41:16;100275.47;;;6.10;79.41
66430;BME280;53242;51.694;10.006;2023-04-30T03:43:38;100279.66;;;6.03;80.50
66430;BME280;53242;51.694;10.006;2023-04-30T03:46:00;100280.63;;;6.02;80.07
66430;BME280;53242;51.694;10.006;2023-04-30T03:48:23;100274.28;;;5.95;79.76
66430;BME280;53242;51.694;10.006;2023-04-30T03:50:46;100279.69;;;5.83;80.07
66430;BME280;53242;51.694;10.006;2023-04-30T03:53:08;100282.16;;;5.95;79.89
66430;BME280;53242;51.694;10.006;2023-04-30T03:55:31;100279.69;;;5.83;79.87
66430;BME280;53242;51.694;10.006;2023-04-30T03:57:54;100289.75;;;5.88;79.78
66430;BME280;53242;51.694;10.006;2023-04-30T04:00:16;100282.19;;;5.85;80.45
66430;BME280;53242;51.694;10.006;2023-04-30T04:02:44;100278.41;;;5.69;80.64
66430;BME280;53242;51.694;10.006;2023-04-30T04:05:07;100287.84;;;5.80;80.42
66430;BME280;53242;51.694;10.006;2023-04-30T04:07:30;100289.72;;;5.60;81.04
66430;BME280;53242;51.694;10.006;2023-04-30T04:09:52;100288.81;;;5.79;80.50
66430;BME280;53242;51.694;10.006;2023-04-30T04:12:14;100295.28;;;5.85;80.32
66430;BME280;53242;51.694;10.006;2023-04-30T04:14:37;100301.81;;;5.71;80.83
66430;BME280;53242;51.694;10.006;2023-04-30T04:17:00;100301.25;;;5.77;80.48
66430;BME280;53242;51.694;10.006;2023-04-30T04:19:22;100306.59;;;5.75;80.38
66430;BME280;53242;51.694;10.006;2023-04-30T04:21:45;100306.59;;;5.85;79.79
66430;BME280;53242;51.694;10.006;2023-04-30T04:24:11;100318.44;;;5.89;79.79
66430;BME280;53242;51.694;10.006;2023-04-30T04:26:34;100326.41;;;5.98;79.32
66430;BME280;53242;51.694;10.006;2023-04-30T04:28:57;100316.84;;;5.69;80.52
66430;BME280;53242;51.694;10.006;2023-04-30T04:31:19;100320.09;;;5.90;79.54
66430;BME280;53242;51.694;10.006;2023-04-30T04:33:43;100320.91;;;5.91;79.63
66430;BME280;53242;51.694;10.006;2023-04-30T04:36:06;100317.84;;;5.96;79.61
66430;BME280;53242;51.694;10.006;2023-04-30T04:38:28;100320.78;;;5.92;79.92
66430;BME280;53242;51.694;10.006;2023-04-30T04:40:52;100324.38;;;5.91;79.40
66430;BME280;53242;51.694;10.006;2023-04-30T04:43:15;100323.53;;;6.01;78.95
66430;BME280;53242;51.694;10.006;2023-04-30T04:45:38;100329.31;;;6.04;78.77
66430;BME280;53242;51.694;10.006;2023-04-30T04:48:01;100325.19;;;5.92;79.21
66430;BME280;53242;51.694;10.006;2023-04-30T04:50:24;100330.81;;;5.97;79.16
66430;BME280;53242;51.694;10.006;2023-04-30T04:52:47;100330.00;;;5.97;79.03
66430;BME280;53242;51.694;10.006;2023-04-30T04:55:09;100331.78;;;5.96;79.29
66430;BME280;53242;51.694;10.006;2023-04-30T04:57:33;100334.69;;;6.03;78.96
66430;BME280;53242;51.694;10.006;2023-04-30T04:59:56;100330.81;;;5.97;78.79
66430;BME280;53242;51.694;10.006;2023-04-30T05:02:18;100331.94;;;6.04;78.69
66430;BME280;53242;51.694;10.006;2023-04-30T05:04:41;100334.69;;;6.03;78.75
66430;BME280;53242;51.694;10.006;2023-04-30T05:07:03;100338.22;;;6.12;78.40
66430;BME280;53242;51.694;10.006;2023-04-30T05:09:25;100341.25;;;6.17;78.19
66430;BME280;53242;51.694;10.006;2023-04-30T05:11:48;100344.31;;;6.12;78.50
66430;BME280;53242;51.694;10.006;2023-04-30T05:14:10;100355.38;;;6.06;78.88
66430;BME280;53242;51.694;10.006;2023-04-30T05:16:33;100354.22;;;6.18;78.44
66430;BME280;53242;51.694;10.006;2023-04-30T05:18:55;100357.19;;;6.33;78.04
66430;BME280;53242;51.694;10.006;2023-04-30T05:21:18;100353.44;;;6.36;77.96
66430;BME280;53242;51.694;10.006;2023-04-30T05:23:40;100355.25;;;6.35;77.81
66430;BME280;53242;51.694;10.006;2023-04-30T05:26:03;100364.00;;;6.26;78.16
66430;BME280;53242;51.694;10.006;2023-04-30T05:28:28;100359.47;;;6.18;78.39
66430;BME280;53242;51.694;10.006;2023-04-30T05:30:51;100365.91;;;6.24;78.62
66430;BME280;53242;51.694;10.006;2023-04-30T05:33:13;100363.78;;;6.37;78.28
66430;BME280;53242;51.694;10.006;2023-04-30T05:35:36;100362.88;;;6.29;78.36
66430;BME280;53242;51.694;10.006;2023-04-30T05:37:58;100358.91;;;6.42;77.93
66430;BME280;53242;51.694;10.006;2023-04-30T05:40:20;100357.78;;;6.73;76.98
66430;BME280;53242;51.694;10.006;2023-04-30T05:42:43;100362.00;;;7.02;75.92
66430;BME280;53242;51.694;10.006;2023-04-30T05:45:06;100351.22;;;7.49;74.61
66430;BME280;53242;51.694;10.006;2023-04-30T05:47:29;100346.50;;;7.53;74.25
66430;BME280;53242;51.694;10.006;2023-04-30T05:49:52;100351.84;;;7.96;72.91
66430;BME280;53242;51.694;10.006;2023-04-30T05:52:14;100351.75;;;7.79;73.32
66430;BME280;53242;51.694;10.006;2023-04-30T05:54:38;100361.81;;;7.57;74.47
66430;BME280;53242;51.694;10.006;2023-04-30T05:57:01;100344.97;;;7.68;73.64
66430;BME280;53242;51.694;10.006;2023-04-30T05:59:23;100351.53;;;7.64;74.19
66430;BME280;53242;51.694;10.006;2023-04-30T06:01:47;100351.91;;;7.78;74.48
66430;BME280;53242;51.694;10.006;2023-04-30T06:04:09;100354.13;;;8.17;72.90
66430;BME280;53242;51.694;10.006;2023-04-30T06:06:32;100357.72;;;8.16;72.97
66430;BME280;53242;51.694;10.006;2023-04-30T06:08:55;100355.91;;;8.16;72.45
66430;BME280;53242;51.694;10.006;2023-04-30T06:11:17;100350.59;;;8.00;73.29
66430;BME280;53242;51.694;10.006;2023-04-30T06:13:40;100343.00;;;7.97;73.43
66430;BME280;53242;51.694;10.006;2023-04-30T06:16:02;100342.28;;;8.21;72.95
66430;BME280;53242;51.694;10.006;2023-04-30T06:18:24;100338.81;;;8.47;71.91
66430;BME280;53242;51.694;10.006;2023-04-30T06:20:47;100339.31;;;8.59;72.02
66430;BME280;53242;51.694;10.006;2023-04-30T06:23:09;100338.84;;;8.63;71.39
66430;BME280;53242;51.694;10.006;2023-04-30T06:25:32;100348.06;;;8.59;71.15
66430;BME280;53242;51.694;10.006;2023-04-30T06:27:54;100343.00;;;8.39;71.57
66430;BME280;53242;51.694;10.006;2023-04-30T06:30:19;100346.41;;;8.66;71.63
66430;BME280;53242;51.694;10.006;2023-04-30T06:32:41;100353.38;;;8.84;71.09
66430;BME280;53242;51.694;10.006;2023-04-30T06:35:04;100346.59;;;8.73;70.46
66430;BME280;53242;51.694;10.006;2023-04-30T06:37:27;100344.81;;;8.74;70.89
66430;BME280;53242;51.694;10.006;2023-04-30T06:39:49;100342.69;;;8.85;70.59
66430;BME280;53242;51.694;10.006;2023-04-30T06:42:12;100340.00;;;8.61;71.32
66430;BME280;53242;51.694;10.006;2023-04-30T06:44:35;100338.00;;;8.63;70.93
66430;BME280;53242;51.694;10.006;2023-04-30T06:46:57;100349.94;;;9.00;70.34
66430;BME280;53242;51.694;10.006;2023-04-30T06:49:20;100352.06;;;8.88;70.05
66430;BME280;53242;51.694;10.006;2023-04-30T06:51:42;100350.78;;;9.00;69.96
66430;BME280;53242;51.694;10.006;2023-04-30T06:54:04;100349.09;;;8.83;70.24
66430;BME280;53242;51.694;10.006;2023-04-30T06:56:27;100345.31;;;8.94;70.28
66430;BME280;53242;51.694;10.006;2023-04-30T06:58:49;100351.25;;;9.20;69.16
66430;BME280;53242;51.694;10.006;2023-04-30T07:01:12;100354.53;;;9.14;68.99
66430;BME280;53242;51.694;10.006;2023-04-30T07:03:34;100345.31;;;9.10;69.60
66430;BME280;53242;51.694;10.006;2023-04-30T07:05:57;100359.00;;;9.05;69.04
66430;BME280;53242;51.694;10.006;2023-04-30T07:08:19;100349.47;;;9.21;69.57
66430;BME280;53242;51.694;10.006;2023-04-30T07:10:42;100350.28;;;9.30;68.37
66430;BME280;53242;51.694;10.006;2023-04-30T07:13:04;100355.84;;;8.94;68.41
66430;BME280;53242;51.694;10.006;2023-04-30T07:15:28;100360.31;;;9.59;67.76
66430;BME280;53242;51.694;10.006;2023-04-30T07:17:51;100365.41;;;9.61;67.51
66430;BME280;53242;51.694;10.006;2023-04-30T07:20:13;100357.84;;;9.58;67.09
66430;BME280;53242;51.694;10.006;2023-04-30T07:22:35;100355.88;;;9.43;67.18
66430;BME280;53242;51.694;10.006;2023-04-30T07:24:58;100352.09;;;9.46;67.17
66430;BME280;53242;51.694;10.006;2023-04-30T07:27:21;100348.94;;;9.75;66.18
66430;BME280;53242;51.694;10.006;2023-04-30T07:29:44;100349.22;;;9.88;65.41
66430;BME280;53242;51.694;10.006;2023-04-30T07:32:06;100349.78;;;9.67;66.05
66430;BME280;53242;51.694;10.006;2023-04-30T07:34:28;100348.50;;;10.03;65.89
66430;BME280;53242;51.694;10.006;2023-04-30T07:36:51;100354.38;;;9.65;65.41
66430;BME280;53242;51.694;10.006;2023-04-30T07:39:13;100350.72;;;9.83;66.01
66430;BME280;53242;51.694;10.006;2023-04-30T07:41:36;100347.06;;;9.84;65.36
66430;BME280;53242;51.694;10.006;2023-04-30T07:43:58;100352.13;;;10.10;64.30
66430;BME280;53242;51.694;10.006;2023-04-30T07:46:22;100352.56;;;10.22;64.16
66430;BME280;53242;51.694;10.006;2023-04-30T07:48:44;100352.44;;;10.07;64.03
66430;BME280;53242;51.694;10.006;2023-04-30T07:51:07;100350.69;;;10.47;63.19
66430;BME280;53242;51.694;10.006;2023-04-30T07:53:29;100358.38;;;10.57;62.53
66430;BME280;53242;51.694;10.006;2023-04-30T07:55:52;100355.25;;;10.53;62.91
66430;BME280;53242;51.694;10.006;2023-04-30T07:58:14;100349.75;;;10.32;62.58
66430;BME280;53242;51.694;10.006;2023-04-30T08:00:36;100347.38;;;10.45;61.87
66430;BME280;53242;51.694;10.006;2023-04-30T08:02:59;100353.97;;;10.81;61.38
66430;BME280;53242;51.694;10.006;2023-04-30T08:05:21;100357.25;;;10.83;60.79
66430;BME280;53242;51.694;10.006;2023-04-30T08:07:44;100360.19;;;10.88;60.51
66430;BME280;53242;51.694;10.006;2023-04-30T08:10:07;100359.94;;;10.75;61.07
66430;BME280;53242;51.694;10.006;2023-04-30T08:12:29;100362.03;;;10.56;60.16
66430;BME280;53242;51.694;10.006;2023-04-30T08:15:01;100368.59;;;11.15;59.46
66430;BME280;53242;51.694;10.006;2023-04-30T08:17:24;100367.28;;;10.88;59.09
66430;BME280;53242;51.694;10.006;2023-04-30T08:19:46;100361.91;;;11.42;57.98
66430;BME280;53242;51.694;10.006;2023-04-30T08:22:09;100359.50;;;11.17;58.09
66430;BME280;53242;51.694;10.006;2023-04-30T08:24:32;100352.84;;;11.22;58.46
66430;BME280;53242;51.694;10.006;2023-04-30T08:26:54;100344.41;;;11.79;56.49
66430;BME280;53242;51.694;10.006;2023-04-30T08:29:17;100354.34;;;11.77;56.41
66430;BME280;53242;51.694;10.006;2023-04-30T08:31:39;100344.56;;;11.63;56.48
66430;BME280;53242;51.694;10.006;2023-04-30T08:34:02;100349.41;;;10.98;57.80
66430;BME280;53242;51.694;10.006;2023-04-30T08:36:24;100353.31;;;11.02;56.74
66430;BME280;53242;51.694;10.006;2023-04-30T08:38:46;100343.16;;;10.91;56.11
66430;BME280;53242;51.694;10.006;2023-04-30T08:41:13;100347.56;;;11.22;56.02
66430;BME280;53242;51.694;10.006;2023-04-30T08:43:35;100343.69;;;11.47;55.42
66430;BME280;53242;51.694;10.006;2023-04-30T08:45:58;100339.81;;;11.58;55.71
66430;BME280;53242;51.694;10.006;2023-04-30T08:48:22;100339.53;;;11.53;55.13
66430;BME280;53242;51.694;10.006;2023-04-30T08:50:46;100333.81;;;11.64;54.26
66430;BME280;53242;51.694;10.006;2023-04-30T08:53:09;100346.94;;;11.73;53.85
66430;BME280;53242;51.694;10.006;2023-04-30T08:55:32;100342.41;;;11.81;53.72
66430;BME280;53242;51.694;10.006;2023-04-30T08:57:55;100339.78;;;11.96;53.31
66430;BME280;53242;51.694;10.006;2023-04-30T09:00:17;100339.47;;;11.76;51.53
66430;BME280;53242;51.694;10.006;2023-04-30T09:02:40;100341.13;;;12.22;52.07
66430;BME280;53242;51.694;10.006;2023-04-30T09:05:08;100345.16;;;12.33;50.64
66430;BME280;53242;51.694;10.006;2023-04-30T09:07:32;100343.22;;;12.12;51.60
66430;BME280;53242;51.694;10.006;2023-04-30T09:09:55;100349.97;;;12.14;51.69
66430;BME280;53242;51.694;10.006;2023-04-30T09:12:19;100348.19;;;12.15;51.12
66430;BME280;53242;51.694;10.006;2023-04-30T09:14:56;100351.63;;;12.15;50.69
66430;BME280;53242;51.694;10.006;2023-04-30T09:17:22;100352.56;;;12.59;50.28
66430;BME280;53242;51.694;10.006;2023-04-30T09:19:46;100352.50;;;12.53;51.27
66430;BME280;53242;51.694;10.006;2023-04-30T09:22:18;100346.34;;;12.30;50.83
66430;BME280;53242;51.694;10.006;2023-04-30T09:24:46;100348.88;;;12.39;50.52
66430;BME280;53242;51.694;10.006;2023-04-30T09:27:18;100351.19;;;12.63;50.05
66430;BME280;53242;51.694;10.006;2023-04-30T09:29:41;100346.66;;;12.79;50.42
66430;BME280;53242;51.694;10.006;2023-04-30T09:32:09;100345.19;;;12.55;52.03
66430;BME280;53242;51.694;10.006;2023-04-30T09:34:33;100335.88;;;13.02;51.88
66430;BME280;53242;51.694;10.006;2023-04-30T09:36:56;100334.78;;;13.11;52.94
66430;BME280;53242;51.694;10.006;2023-04-30T09:39:19;100342.50;;;12.70;51.02
66430;BME280;53242;51.694;10.006;2023-04-30T09:41:41;100344.88;;;13.01;49.60
66430;BME280;53242;51.694;10.006;2023-04-30T09:44:04;100343.81;;;12.59;49.25
66430;BME280;53242;51.694;10.006;2023-04-30T09:46:30;100336.75;;;12.66;48.53
66430;BME280;53242;51.694;10.006;2023-04-30T09:49:04;100332.53;;;13.37;49.23
66430;BME280;53242;51.694;10.006;2023-04-30T09:51:26;100328.97;;;13.01;48.42
66430;BME280;53242;51.694;10.006;2023-04-30T09:53:50;100330.72;;;12.94;48.67
66430;BME280;53242;51.694;10.006;2023-04-30T09:56:14;100327.13;;;12.80;48.04
66430;BME280;53242;51.694;10.006;2023-04-30T09:58:43;100332.94;;;13.12;47.54
66430;BME280;53242;51.694;10.006;2023-04-30T10:01:07;100328.31;;;12.77;47.12
66430;BME280;53242;51.694;10.006;2023-04-30T10:03:32;100331.53;;;13.16;46.32
66430;BME280;53242;51.694;10.006;2023-04-30T10:05:55;100332.28;;;13.10;47.84
66430;BME280;53242;51.694;10.006;2023-04-30T10:10:46;100326.66;;;13.20;47.47
66430;BME280;53242;51.694;10.006;2023-04-30T10:13:15;100323.31;;;13.11;46.76
66430;BME280;53242;51.694;10.006;2023-04-30T10:15:43;100324.88;;;13.20;47.60
66430;BME280;53242;51.694;10.006;2023-04-30T10:18:15;100316.47;;;13.38;46.53
66430;BME280;53242;51.694;10.006;2023-04-30T10:20:38;100315.31;;;13.26;46.99
66430;BME280;53242;51.694;10.006;2023-04-30T10:23:01;100316.56;;;13.30;46.48
66430;BME280;53242;51.694;10.006;2023-04-30T10:25:23;100311.81;;;13.47;46.77
66430;BME280;53242;51.694;10.006;2023-04-30T10:27:47;100305.69;;;13.46;46.65
66430;BME280;53242;51.694;10.006;2023-04-30T10:30:10;100303.94;;;13.54;46.90
66430;BME280;53242;51.694;10.006;2023-04-30T10:32:40;100298.63;;;13.32;46.34
66430;BME280;53242;51.694;10.006;2023-04-30T10:35:13;100303.94;;;13.54;45.76
66430;BME280;53242;51.694;10.006;2023-04-30T10:37:49;100301.44;;;13.52;46.17
66430;BME280;53242;51.694;10.006;2023-04-30T10:40:14;100297.31;;;13.43;45.29
66430;BME280;53242;51.694;10.006;2023-04-30T10:42:44;100283.19;;;13.36;44.81
66430;BME280;53242;51.694;10.006;2023-04-30T10:45:09;100283.47;;;13.82;45.63
66430;BME280;53242;51.694;10.006;2023-04-30T10:47:31;100291.84;;;14.28;45.84
66430;BME280;53242;51.694;10.006;2023-04-30T10:50:04;100289.25;;;14.00;45.55
66430;BME280;53242;51.694;10.006;2023-04-30T10:52:28;100290.94;;;14.07;45.28
66430;BME280;53242;51.694;10.006;2023-04-30T10:54:50;100283.97;;;14.06;43.14
66430;BME280;53242;51.694;10.006;2023-04-30T10:57:14;100277.97;;;14.33;45.25
66430;BME280;53242;51.694;10.006;2023-04-30T10:59:52;100276.81;;;14.62;44.53
66430;BME280;53242;51.694;10.006;2023-04-30T11:02:42;100271.66;;;14.40;44.06
66430;BME280;53242;51.694;10.006;2023-04-30T11:07:31;100270.59;;;14.28;44.00
66430;BME280;53242;51.694;10.006;2023-04-30T11:09:56;100269.09;;;14.67;43.96
66430;BME280;53242;51.694;10.006;2023-04-30T11:12:19;100268.06;;;14.06;43.03
66430;BME280;53242;51.694;10.006;2023-04-30T11:14:49;100260.81;;;14.35;43.19
66430;BME280;53242;51.694;10.006;2023-04-30T11:17:20;100257.38;;;14.61;43.42
66430;BME280;53242;51.694;10.006;2023-04-30T11:19:49;100252.88;;;14.55;42.90
66430;BME280;53242;51.694;10.006;2023-04-30T11:25:04;100243.75;;;14.78;42.73
66430;BME280;53242;51.694;10.006;2023-04-30T11:27:28;100245.91;;;14.41;42.21
66430;BME280;53242;51.694;10.006;2023-04-30T11:29:51;100248.66;;;14.74;43.14
66430;BME280;53242;51.694;10.006;2023-04-30T11:32:14;100241.66;;;14.60;43.31
66430;BME280;53242;51.694;10.006;2023-04-30T11:34:37;100243.09;;;14.56;43.50
66430;BME280;53242;51.694;10.006;2023-04-30T11:37:00;100240.50;;;14.83;43.05
66430;BME280;53242;51.694;10.006;2023-04-30T11:39:25;100239.88;;;14.80;43.92
66430;BME280;53242;51.694;10.006;2023-04-30T11:41:49;100237.59;;;14.98;43.64
66430;BME280;53242;51.694;10.006;2023-04-30T11:44:29;100241.50;;;14.82;42.74
66430;BME280;53242;51.694;10.006;2023-04-30T11:46:52;100234.50;;;14.60;43.48
66430;BME280;53242;51.694;10.006;2023-04-30T11:49:14;100236.75;;;14.57;43.59
66430;BME280;53242;51.694;10.006;2023-04-30T11:51:37;100240.63;;;14.54;43.48
66430;BME280;53242;51.694;10.006;2023-04-30T11:54:02;100241.47;;;14.68;42.99
66430;BME280;53242;51.694;10.006;2023-04-30T11:56:24;100232.97;;;14.18;40.78
66430;BME280;53242;51.694;10.006;2023-04-30T11:58:50;100226.13;;;14.57;41.49
66430;BME280;53242;51.694;10.006;2023-04-30T12:01:13;100228.63;;;14.99;41.31
66430;BME280;53242;51.694;10.006;2023-04-30T12:03:46;100228.75;;;14.50;41.32
66430;BME280;53242;51.694;10.006;2023-04-30T12:06:10;100223.94;;;14.74;40.95
66430;BME280;53242;51.694;10.006;2023-04-30T12:08:33;100224.53;;;14.89;40.96
66430;BME280;53242;51.694;10.006;2023-04-30T12:10:56;100221.25;;;14.80;40.77
66430;BME280;53242;51.694;10.006;2023-04-30T12:13:18;100218.78;;;14.66;39.58
66430;BME280;53242;51.694;10.006;2023-04-30T12:15:41;100215.53;;;15.04;40.13
66430;BME280;53242;51.694;10.006;2023-04-30T12:18:11;100222.88;;;14.95;39.03
66430;BME280;53242;51.694;10.006;2023-04-30T12:20:34;100216.53;;;15.09;37.51
66430;BME280;53242;51.694;10.006;2023-04-30T12:22:57;100208.94;;;15.20;39.94
66430;BME280;53242;51.694;10.006;2023-04-30T12:25:21;100211.25;;;14.96;40.05
66430;BME280;53242;51.694;10.006;2023-04-30T12:27:51;100200.00;;;15.07;40.32
66430;BME280;53242;51.694;10.006;2023-04-30T12:30:14;100198.13;;;15.15;39.57
66430;BME280;53242;51.694;10.006;2023-04-30T12:32:43;100200.19;;;15.12;39.55
66430;BME280;53242;51.694;10.006;2023-04-30T12:35:06;100192.00;;;15.14;39.50
66430;BME280;53242;51.694;10.006;2023-04-30T12:37:29;100192.72;;;15.55;39.01
66430;BME280;53242;51.694;10.006;2023-04-30T12:39:54;100192.72;;;15.55;38.51
66430;BME280;53242;51.694;10.006;2023-04-30T12:42:19;100197.28;;;15.34;37.37
66430;BME280;53242;51.694;10.006;2023-04-30T12:44:42;100184.78;;;15.35;37.34
66430;BME280;53242;51.694;10.006;2023-04-30T12:47:08;100188.81;;;15.51;36.51
66430;BME280;53242;51.694;10.006;2023-04-30T12:49:34;100183.63;;;15.76;36.12
66430;BME280;53242;51.694;10.006;2023-04-30T12:52:17;100191.22;;;15.72;36.13
66430;BME280;53242;51.694;10.006;2023-04-30T12:54:44;100182.28;;;15.53;37.28
66430;BME280;53242;51.694;10.006;2023-04-30T12:57:09;100181.47;;;15.53;36.64